sensor_id;sensor_type;location;lat;lon;timestamp;P1;durP1;ratioP1;P2;durP2;ratioP2
20623;SDS011;10471;42.736;23.346;2023-09-19T00:01:33;10.23;;;6.07;;
20623;SDS011;10471;42.736;23.346;2023-09-19T00:03:58;9.03;;;5.97;;
20623;SDS011;10471;42.736;23.346;2023-09-19T00:06:24;7.50;;;5.80;;
20623;SDS011;10471;42.736;23.346;2023-09-19T00:08:51;8.27;;;6.73;;
20623;SDS011;10471;42.736;23.346;2023-09-19T00:11:19;9.37;;;5.90;;
20623;SDS011;10471;42.736;23.346;2023-09-19T00:13:47;8.97;;;6.10;;
20623;SDS011;10471;42.736;23.346;2023-09-19T00:16:14;7.67;;;6.23;;
20623;SDS011;10471;42.736;23.346;2023-09-19T00:18:40;9.13;;;6.63;;
20623;SDS011;10471;42.736;23.346;2023-09-19T00:21:05;13.60;;;6.13;;
20623;SDS011;10471;42.736;23.346;2023-09-19T00:23:32;8.07;;;6.43;;
20623;SDS011;10471;42.736;23.346;2023-09-19T00:25:58;9.97;;;7.10;;
20623;SDS011;10471;42.736;23.346;2023-09-19T00:28:24;11.47;;;6.80;;
20623;SDS011;10471;42.736;23.346;2023-09-19T00:30:51;12.40;;;6.90;;
20623;SDS011;10471;42.736;23.346;2023-09-19T00:33:16;7.87;;;6.33;;
20623;SDS011;10471;42.736;23.346;2023-09-19T00:35:51;9.10;;;6.67;;
20623;SDS011;10471;42.736;23.346;2023-09-19T00:38:19;12.90;;;6.73;;
20623;SDS011;10471;42.736;23.346;2023-09-19T00:40:47;10.60;;;7.00;;
20623;SDS011;10471;42.736;23.346;2023-09-19T00:43:13;10.27;;;6.77;;
20623;SDS011;10471;42.736;23.346;2023-09-19T00:45:42;9.87;;;7.10;;
20623;SDS011;10471;42.736;23.346;2023-09-19T00:48:09;10.47;;;6.70;;
20623;SDS011;10471;42.736;23.346;2023-09-19T00:50:35;9.30;;;7.07;;
20623;SDS011;10471;42.736;23.346;2023-09-19T00:53:01;8.50;;;6.97;;
20623;SDS011;10471;42.736;23.346;2023-09-19T00:55:32;11.90;;;6.70;;
20623;SDS011;10471;42.736;23.346;2023-09-19T00:57:59;11.10;;;7.47;;
20623;SDS011;10471;42.736;23.346;2023-09-19T01:00:25;8.47;;;7.00;;
20623;SDS011;10471;42.736;23.346;2023-09-19T01:02:51;8.67;;;7.00;;
20623;SDS011;10471;42.736;23.346;2023-09-19T01:05:16;10.83;;;7.73;;
20623;SDS011;10471;42.736;23.346;2023-09-19T01:07:42;11.73;;;7.07;;
20623;SDS011;10471;42.736;23.346;2023-09-19T01:10:10;11.47;;;7.60;;
20623;SDS011;10471;42.736;23.346;2023-09-19T01:18:33;11.00;;;7.27;;
20623;SDS011;10471;42.736;23.346;2023-09-19T01:21:15;11.43;;;7.43;;
20623;SDS011;10471;42.736;23.346;2023-09-19T01:29:33;8.27;;;7.33;;
20623;SDS011;10471;42.736;23.346;2023-09-19T01:32:05;10.67;;;7.90;;
20623;SDS011;10471;42.736;23.346;2023-09-19T01:34:43;13.63;;;8.70;;
20623;SDS011;10471;42.736;23.346;2023-09-19T01:37:13;11.47;;;8.73;;
20623;SDS011;10471;42.736;23.346;2023-09-19T01:39:44;16.53;;;8.53;;
20623;SDS011;10471;42.736;23.346;2023-09-19T01:42:19;14.43;;;8.97;;
20623;SDS011;10471;42.736;23.346;2023-09-19T01:44:57;12.87;;;8.47;;
20623;SDS011;10471;42.736;23.346;2023-09-19T01:47:41;13.47;;;8.63;;
20623;SDS011;10471;42.736;23.346;2023-09-19T01:50:35;10.13;;;8.77;;
20623;SDS011;10471;42.736;23.346;2023-09-19T01:53:15;12.60;;;9.03;;
20623;SDS011;10471;42.736;23.346;2023-09-19T01:55:55;11.00;;;8.63;;
20623;SDS011;10471;42.736;23.346;2023-09-19T02:00:57;11.77;;;9.30;;
20623;SDS011;10471;42.736;23.346;2023-09-19T02:03:24;10.90;;;8.93;;
20623;SDS011;10471;42.736;23.346;2023-09-19T02:05:52;12.17;;;9.43;;
20623;SDS011;10471;42.736;23.346;2023-09-19T02:08:19;15.40;;;9.10;;
20623;SDS011;10471;42.736;23.346;2023-09-19T02:10:45;9.90;;;8.83;;
20623;SDS011;10471;42.736;23.346;2023-09-19T02:13:15;11.00;;;8.93;;
20623;SDS011;10471;42.736;23.346;2023-09-19T02:15:42;12.63;;;8.47;;
20623;SDS011;10471;42.736;23.346;2023-09-19T02:18:09;10.83;;;8.83;;
20623;SDS011;10471;42.736;23.346;2023-09-19T02:20:34;15.23;;;9.17;;
20623;SDS011;10471;42.736;23.346;2023-09-19T02:23:00;13.37;;;9.10;;
20623;SDS011;10471;42.736;23.346;2023-09-19T02:25:25;12.27;;;9.43;;
20623;SDS011;10471;42.736;23.346;2023-09-19T02:27:52;12.77;;;9.70;;
20623;SDS011;10471;42.736;23.346;2023-09-19T02:30:19;12.30;;;9.17;;
20623;SDS011;10471;42.736;23.346;2023-09-19T02:32:46;11.83;;;9.40;;
20623;SDS011;10471;42.736;23.346;2023-09-19T02:35:11;12.73;;;9.40;;
20623;SDS011;10471;42.736;23.346;2023-09-19T02:37:39;14.37;;;10.03;;
20623;SDS011;10471;42.736;23.346;2023-09-19T02:40:05;13.73;;;9.87;;
20623;SDS011;10471;42.736;23.346;2023-09-19T02:42:43;11.50;;;9.33;;
20623;SDS011;10471;42.736;23.346;2023-09-19T02:45:13;14.07;;;8.73;;
20623;SDS011;10471;42.736;23.346;2023-09-19T02:47:42;12.23;;;9.23;;
20623;SDS011;10471;42.736;23.346;2023-09-19T02:50:08;12.23;;;9.57;;
20623;SDS011;10471;42.736;23.346;2023-09-19T02:52:36;13.17;;;10.33;;
20623;SDS011;10471;42.736;23.346;2023-09-19T02:55:01;12.77;;;9.90;;
20623;SDS011;10471;42.736;23.346;2023-09-19T02:57:28;15.20;;;10.20;;
20623;SDS011;10471;42.736;23.346;2023-09-19T02:59:54;12.03;;;10.10;;
20623;SDS011;10471;42.736;23.346;2023-09-19T03:02:19;14.33;;;10.30;;
20623;SDS011;10471;42.736;23.346;2023-09-19T03:04:49;12.30;;;10.57;;
20623;SDS011;10471;42.736;23.346;2023-09-19T03:07:16;13.83;;;10.47;;
20623;SDS011;10471;42.736;23.346;2023-09-19T03:09:42;16.00;;;10.63;;
20623;SDS011;10471;42.736;23.346;2023-09-19T03:12:08;14.40;;;10.27;;
20623;SDS011;10471;42.736;23.346;2023-09-19T03:14:33;12.43;;;10.30;;
20623;SDS011;10471;42.736;23.346;2023-09-19T03:17:00;15.57;;;10.30;;
20623;SDS011;10471;42.736;23.346;2023-09-19T03:19:26;14.77;;;10.13;;
20623;SDS011;10471;42.736;23.346;2023-09-19T03:21:51;14.50;;;10.40;;
20623;SDS011;10471;42.736;23.346;2023-09-19T03:24:18;14.87;;;10.93;;
20623;SDS011;10471;42.736;23.346;2023-09-19T03:26:44;14.03;;;10.47;;
20623;SDS011;10471;42.736;23.346;2023-09-19T03:29:10;15.63;;;11.07;;
20623;SDS011;10471;42.736;23.346;2023-09-19T03:31:36;15.40;;;10.63;;
20623;SDS011;10471;42.736;23.346;2023-09-19T03:34:04;13.47;;;10.67;;
20623;SDS011;10471;42.736;23.346;2023-09-19T03:36:29;14.93;;;11.60;;
20623;SDS011;10471;42.736;23.346;2023-09-19T03:38:55;13.47;;;11.17;;
20623;SDS011;10471;42.736;23.346;2023-09-19T03:41:21;13.67;;;11.27;;
20623;SDS011;10471;42.736;23.346;2023-09-19T03:43:46;14.90;;;10.93;;
20623;SDS011;10471;42.736;23.346;2023-09-19T03:46:12;14.77;;;11.30;;
20623;SDS011;10471;42.736;23.346;2023-09-19T03:48:40;14.30;;;10.83;;
20623;SDS011;10471;42.736;23.346;2023-09-19T03:51:05;17.87;;;12.40;;
20623;SDS011;10471;42.736;23.346;2023-09-19T03:53:31;15.90;;;12.23;;
20623;SDS011;10471;42.736;23.346;2023-09-19T03:55:56;16.80;;;12.07;;
20623;SDS011;10471;42.736;23.346;2023-09-19T03:58:22;18.77;;;12.67;;
20623;SDS011;10471;42.736;23.346;2023-09-19T04:00:47;14.43;;;11.80;;
20623;SDS011;10471;42.736;23.346;2023-09-19T04:03:14;17.90;;;12.63;;
20623;SDS011;10471;42.736;23.346;2023-09-19T04:05:45;18.17;;;12.10;;
20623;SDS011;10471;42.736;23.346;2023-09-19T04:08:12;17.13;;;12.00;;
20623;SDS011;10471;42.736;23.346;2023-09-19T04:10:37;18.17;;;11.97;;
20623;SDS011;10471;42.736;23.346;2023-09-19T04:13:03;20.23;;;13.13;;
20623;SDS011;10471;42.736;23.346;2023-09-19T04:15:29;22.57;;;13.87;;
20623;SDS011;10471;42.736;23.346;2023-09-19T04:17:54;21.97;;;13.97;;
20623;SDS011;10471;42.736;23.346;2023-09-19T04:20:20;20.10;;;13.87;;
20623;SDS011;10471;42.736;23.346;2023-09-19T04:22:48;22.23;;;12.83;;
20623;SDS011;10471;42.736;23.346;2023-09-19T04:25:13;19.30;;;11.87;;
20623;SDS011;10471;42.736;23.346;2023-09-19T04:27:39;17.40;;;11.40;;
20623;SDS011;10471;42.736;23.346;2023-09-19T04:30:06;18.83;;;11.20;;
20623;SDS011;10471;42.736;23.346;2023-09-19T04:32:36;26.40;;;12.33;;
20623;SDS011;10471;42.736;23.346;2023-09-19T04:35:09;25.93;;;13.33;;
20623;SDS011;10471;42.736;23.346;2023-09-19T04:37:39;26.87;;;13.17;;
20623;SDS011;10471;42.736;23.346;2023-09-19T04:40:09;24.67;;;14.67;;
20623;SDS011;10471;42.736;23.346;2023-09-19T04:42:42;23.40;;;13.93;;
20623;SDS011;10471;42.736;23.346;2023-09-19T04:45:17;21.10;;;15.00;;
20623;SDS011;10471;42.736;23.346;2023-09-19T04:47:45;22.63;;;13.47;;
20623;SDS011;10471;42.736;23.346;2023-09-19T04:50:10;20.13;;;13.70;;
20623;SDS011;10471;42.736;23.346;2023-09-19T04:52:41;22.67;;;13.73;;
20623;SDS011;10471;42.736;23.346;2023-09-19T04:55:12;28.93;;;13.77;;
20623;SDS011;10471;42.736;23.346;2023-09-19T04:57:41;24.93;;;13.40;;
20623;SDS011;10471;42.736;23.346;2023-09-19T05:00:08;20.20;;;13.03;;
20623;SDS011;10471;42.736;23.346;2023-09-19T05:02:37;17.17;;;12.90;;
20623;SDS011;10471;42.736;23.346;2023-09-19T05:05:05;23.63;;;12.93;;
20623;SDS011;10471;42.736;23.346;2023-09-19T05:07:32;22.63;;;13.43;;
20623;SDS011;10471;42.736;23.346;2023-09-19T05:09:59;19.27;;;13.13;;
20623;SDS011;10471;42.736;23.346;2023-09-19T05:12:25;15.97;;;11.87;;
20623;SDS011;10471;42.736;23.346;2023-09-19T05:14:52;23.60;;;13.90;;
20623;SDS011;10471;42.736;23.346;2023-09-19T05:17:17;15.37;;;11.80;;
20623;SDS011;10471;42.736;23.346;2023-09-19T05:19:43;14.27;;;11.37;;
20623;SDS011;10471;42.736;23.346;2023-09-19T05:22:08;16.40;;;11.10;;
20623;SDS011;10471;42.736;23.346;2023-09-19T05:24:34;14.23;;;10.70;;
20623;SDS011;10471;42.736;23.346;2023-09-19T05:26:59;14.33;;;10.30;;
20623;SDS011;10471;42.736;23.346;2023-09-19T05:29:25;15.70;;;9.50;;
20623;SDS011;10471;42.736;23.346;2023-09-19T05:31:51;13.70;;;9.80;;
20623;SDS011;10471;42.736;23.346;2023-09-19T05:34:16;11.60;;;8.53;;
20623;SDS011;10471;42.736;23.346;2023-09-19T05:36:41;13.57;;;8.97;;
20623;SDS011;10471;42.736;23.346;2023-09-19T05:39:08;12.00;;;7.43;;
20623;SDS011;10471;42.736;23.346;2023-09-19T05:41:35;8.03;;;6.20;;
20623;SDS011;10471;42.736;23.346;2023-09-19T05:44:02;9.80;;;6.63;;
20623;SDS011;10471;42.736;23.346;2023-09-19T05:46:28;9.17;;;6.17;;
20623;SDS011;10471;42.736;23.346;2023-09-19T05:48:54;8.10;;;6.50;;
20623;SDS011;10471;42.736;23.346;2023-09-19T05:51:21;8.33;;;6.10;;
20623;SDS011;10471;42.736;23.346;2023-09-19T05:53:48;8.30;;;5.93;;
20623;SDS011;10471;42.736;23.346;2023-09-19T05:56:13;9.77;;;6.67;;
20623;SDS011;10471;42.736;23.346;2023-09-19T05:58:40;8.17;;;5.77;;
20623;SDS011;10471;42.736;23.346;2023-09-19T06:01:08;14.03;;;6.07;;
20623;SDS011;10471;42.736;23.346;2023-09-19T06:03:34;7.73;;;5.97;;
20623;SDS011;10471;42.736;23.346;2023-09-19T06:06:00;8.53;;;5.57;;
20623;SDS011;10471;42.736;23.346;2023-09-19T06:08:26;8.20;;;5.83;;
20623;SDS011;10471;42.736;23.346;2023-09-19T06:10:53;6.87;;;5.50;;
20623;SDS011;10471;42.736;23.346;2023-09-19T06:13:18;7.67;;;5.77;;
20623;SDS011;10471;42.736;23.346;2023-09-19T06:15:44;7.77;;;5.67;;
20623;SDS011;10471;42.736;23.346;2023-09-19T06:18:11;8.70;;;5.60;;
20623;SDS011;10471;42.736;23.346;2023-09-19T06:20:42;12.83;;;5.70;;
20623;SDS011;10471;42.736;23.346;2023-09-19T06:23:09;5.80;;;5.20;;
20623;SDS011;10471;42.736;23.346;2023-09-19T06:25:35;9.73;;;5.73;;
20623;SDS011;10471;42.736;23.346;2023-09-19T06:28:00;8.57;;;5.17;;
20623;SDS011;10471;42.736;23.346;2023-09-19T06:30:30;8.10;;;5.50;;
20623;SDS011;10471;42.736;23.346;2023-09-19T06:32:57;8.93;;;5.40;;
20623;SDS011;10471;42.736;23.346;2023-09-19T06:35:24;8.17;;;5.33;;
20623;SDS011;10471;42.736;23.346;2023-09-19T06:37:51;8.60;;;5.07;;
20623;SDS011;10471;42.736;23.346;2023-09-19T06:40:17;9.50;;;5.50;;
20623;SDS011;10471;42.736;23.346;2023-09-19T06:42:45;9.80;;;5.10;;
20623;SDS011;10471;42.736;23.346;2023-09-19T06:45:13;6.30;;;5.30;;
20623;SDS011;10471;42.736;23.346;2023-09-19T06:47:46;6.13;;;4.33;;
20623;SDS011;10471;42.736;23.346;2023-09-19T06:50:15;10.73;;;4.83;;
20623;SDS011;10471;42.736;23.346;2023-09-19T06:52:44;5.77;;;4.43;;
20623;SDS011;10471;42.736;23.346;2023-09-19T06:55:11;6.30;;;4.30;;
20623;SDS011;10471;42.736;23.346;2023-09-19T06:57:38;8.13;;;5.00;;
20623;SDS011;10471;42.736;23.346;2023-09-19T07:00:06;5.77;;;4.53;;
20623;SDS011;10471;42.736;23.346;2023-09-19T07:02:40;6.47;;;4.60;;
20623;SDS011;10471;42.736;23.346;2023-09-19T07:05:09;6.57;;;4.80;;
20623;SDS011;10471;42.736;23.346;2023-09-19T07:07:34;7.33;;;4.40;;
20623;SDS011;10471;42.736;23.346;2023-09-19T07:10:03;7.53;;;4.83;;
20623;SDS011;10471;42.736;23.346;2023-09-19T07:12:33;6.63;;;4.30;;
20623;SDS011;10471;42.736;23.346;2023-09-19T07:14:58;8.10;;;5.00;;
20623;SDS011;10471;42.736;23.346;2023-09-19T07:17:24;7.07;;;4.70;;
20623;SDS011;10471;42.736;23.346;2023-09-19T07:19:49;7.43;;;4.63;;
20623;SDS011;10471;42.736;23.346;2023-09-19T07:22:15;5.13;;;4.17;;
20623;SDS011;10471;42.736;23.346;2023-09-19T07:24:41;6.70;;;4.40;;
20623;SDS011;10471;42.736;23.346;2023-09-19T07:27:06;6.90;;;4.30;;
20623;SDS011;10471;42.736;23.346;2023-09-19T07:29:31;5.53;;;4.40;;
20623;SDS011;10471;42.736;23.346;2023-09-19T07:31:57;7.03;;;3.97;;
20623;SDS011;10471;42.736;23.346;2023-09-19T07:34:22;6.03;;;3.90;;
20623;SDS011;10471;42.736;23.346;2023-09-19T07:36:49;6.90;;;4.27;;
20623;SDS011;10471;42.736;23.346;2023-09-19T07:39:15;5.20;;;4.17;;
20623;SDS011;10471;42.736;23.346;2023-09-19T07:41:40;5.57;;;4.30;;
20623;SDS011;10471;42.736;23.346;2023-09-19T07:44:06;6.17;;;4.43;;
20623;SDS011;10471;42.736;23.346;2023-09-19T07:46:31;7.23;;;3.97;;
20623;SDS011;10471;42.736;23.346;2023-09-19T07:48:57;5.53;;;4.57;;
20623;SDS011;10471;42.736;23.346;2023-09-19T07:51:22;6.57;;;4.40;;
20623;SDS011;10471;42.736;23.346;2023-09-19T07:53:48;9.67;;;6.47;;
20623;SDS011;10471;42.736;23.346;2023-09-19T07:56:13;9.27;;;5.47;;
20623;SDS011;10471;42.736;23.346;2023-09-19T07:58:39;6.70;;;4.30;;
20623;SDS011;10471;42.736;23.346;2023-09-19T08:01:09;5.80;;;4.97;;
20623;SDS011;10471;42.736;23.346;2023-09-19T08:03:36;7.93;;;4.60;;
20623;SDS011;10471;42.736;23.346;2023-09-19T08:06:05;6.07;;;4.63;;
20623;SDS011;10471;42.736;23.346;2023-09-19T08:08:32;6.27;;;4.40;;
20623;SDS011;10471;42.736;23.346;2023-09-19T08:11:02;6.90;;;4.60;;
20623;SDS011;10471;42.736;23.346;2023-09-19T08:13:29;6.13;;;4.60;;
20623;SDS011;10471;42.736;23.346;2023-09-19T08:15:56;7.87;;;4.57;;
20623;SDS011;10471;42.736;23.346;2023-09-19T08:18:21;6.20;;;4.87;;
20623;SDS011;10471;42.736;23.346;2023-09-19T08:20:51;5.07;;;4.57;;
20623;SDS011;10471;42.736;23.346;2023-09-19T08:23:18;7.50;;;4.20;;
20623;SDS011;10471;42.736;23.346;2023-09-19T08:25:45;6.00;;;4.70;;
20623;SDS011;10471;42.736;23.346;2023-09-19T08:28:11;7.50;;;4.83;;
20623;SDS011;10471;42.736;23.346;2023-09-19T08:30:37;7.10;;;4.30;;
20623;SDS011;10471;42.736;23.346;2023-09-19T08:33:05;6.77;;;4.87;;
20623;SDS011;10471;42.736;23.346;2023-09-19T08:35:31;6.73;;;5.07;;
20623;SDS011;10471;42.736;23.346;2023-09-19T08:37:57;6.10;;;4.20;;
20623;SDS011;10471;42.736;23.346;2023-09-19T08:40:22;7.20;;;4.67;;
20623;SDS011;10471;42.736;23.346;2023-09-19T08:42:52;8.10;;;4.50;;
20623;SDS011;10471;42.736;23.346;2023-09-19T08:45:22;7.53;;;4.73;;
20623;SDS011;10471;42.736;23.346;2023-09-19T08:48:36;6.50;;;4.87;;
20623;SDS011;10471;42.736;23.346;2023-09-19T08:50:47;7.33;;;5.00;;
20623;SDS011;10471;42.736;23.346;2023-09-19T08:53:16;5.47;;;4.90;;
20623;SDS011;10471;42.736;23.346;2023-09-19T08:55:52;5.83;;;4.70;;
20623;SDS011;10471;42.736;23.346;2023-09-19T08:58:21;5.60;;;4.43;;
20623;SDS011;10471;42.736;23.346;2023-09-19T09:00:54;10.53;;;4.90;;
20623;SDS011;10471;42.736;23.346;2023-09-19T09:03:21;8.50;;;5.03;;
20623;SDS011;10471;42.736;23.346;2023-09-19T09:05:48;7.10;;;4.80;;
20623;SDS011;10471;42.736;23.346;2023-09-19T09:08:15;6.03;;;4.30;;
20623;SDS011;10471;42.736;23.346;2023-09-19T09:10:44;4.80;;;4.40;;
20623;SDS011;10471;42.736;23.346;2023-09-19T09:13:09;6.57;;;4.43;;
20623;SDS011;10471;42.736;23.346;2023-09-19T09:15:39;7.37;;;5.07;;
20623;SDS011;10471;42.736;23.346;2023-09-19T09:18:06;7.53;;;5.10;;
20623;SDS011;10471;42.736;23.346;2023-09-19T09:20:31;5.77;;;4.47;;
20623;SDS011;10471;42.736;23.346;2023-09-19T09:22:57;8.90;;;4.87;;
20623;SDS011;10471;42.736;23.346;2023-09-19T09:28:34;5.80;;;5.00;;
20623;SDS011;10471;42.736;23.346;2023-09-19T09:31:02;6.83;;;4.63;;
20623;SDS011;10471;42.736;23.346;2023-09-19T09:33:32;8.60;;;4.67;;
20623;SDS011;10471;42.736;23.346;2023-09-19T09:35:59;7.10;;;4.90;;
20623;SDS011;10471;42.736;23.346;2023-09-19T09:38:28;6.57;;;4.50;;
20623;SDS011;10471;42.736;23.346;2023-09-19T09:40:58;7.57;;;4.33;;
20623;SDS011;10471;42.736;23.346;2023-09-19T09:46:18;5.73;;;4.77;;
20623;SDS011;10471;42.736;23.346;2023-09-19T09:48:57;6.83;;;4.53;;
20623;SDS011;10471;42.736;23.346;2023-09-19T09:51:42;6.87;;;4.67;;
20623;SDS011;10471;42.736;23.346;2023-09-19T09:54:17;5.20;;;4.70;;
20623;SDS011;10471;42.736;23.346;2023-09-19T09:56:59;8.93;;;5.23;;
20623;SDS011;10471;42.736;23.346;2023-09-19T10:04:58;5.87;;;4.73;;
20623;SDS011;10471;42.736;23.346;2023-09-19T10:07:35;5.33;;;4.70;;
20623;SDS011;10471;42.736;23.346;2023-09-19T10:10:03;4.83;;;4.30;;
20623;SDS011;10471;42.736;23.346;2023-09-19T10:12:47;7.00;;;4.57;;
20623;SDS011;10471;42.736;23.346;2023-09-19T10:15:17;8.27;;;4.60;;
20623;SDS011;10471;42.736;23.346;2023-09-19T10:17:46;6.67;;;4.53;;
20623;SDS011;10471;42.736;23.346;2023-09-19T10:20:18;7.17;;;4.63;;
20623;SDS011;10471;42.736;23.346;2023-09-19T10:23:05;12.33;;;4.70;;
20623;SDS011;10471;42.736;23.346;2023-09-19T10:25:38;8.17;;;4.80;;
20623;SDS011;10471;42.736;23.346;2023-09-19T10:28:09;6.10;;;5.00;;
20623;SDS011;10471;42.736;23.346;2023-09-19T10:30:45;10.10;;;4.97;;
20623;SDS011;10471;42.736;23.346;2023-09-19T10:33:16;7.47;;;4.47;;
20623;SDS011;10471;42.736;23.346;2023-09-19T10:35:45;6.60;;;4.70;;
20623;SDS011;10471;42.736;23.346;2023-09-19T10:38:13;5.70;;;4.87;;
20623;SDS011;10471;42.736;23.346;2023-09-19T10:40:40;8.33;;;4.83;;
20623;SDS011;10471;42.736;23.346;2023-09-19T10:43:11;8.97;;;5.07;;
20623;SDS011;10471;42.736;23.346;2023-09-19T10:45:42;8.93;;;5.07;;
20623;SDS011;10471;42.736;23.346;2023-09-19T10:48:09;7.33;;;4.63;;
20623;SDS011;10471;42.736;23.346;2023-09-19T10:50:45;6.53;;;5.17;;
20623;SDS011;10471;42.736;23.346;2023-09-19T10:53:15;6.73;;;4.80;;
20623;SDS011;10471;42.736;23.346;2023-09-19T10:55:47;7.20;;;4.77;;
20623;SDS011;10471;42.736;23.346;2023-09-19T10:58:31;5.67;;;4.53;;
20623;SDS011;10471;42.736;23.346;2023-09-19T11:01:04;5.37;;;4.80;;
20623;SDS011;10471;42.736;23.346;2023-09-19T11:03:38;7.30;;;4.70;;
20623;SDS011;10471;42.736;23.346;2023-09-19T11:06:12;10.67;;;5.20;;
20623;SDS011;10471;42.736;23.346;2023-09-19T11:14:13;6.87;;;5.60;;
20623;SDS011;10471;42.736;23.346;2023-09-19T11:30:45;8.10;;;5.27;;
20623;SDS011;10471;42.736;23.346;2023-09-19T11:33:15;6.50;;;5.40;;
20623;SDS011;10471;42.736;23.346;2023-09-19T11:36:11;10.43;;;5.43;;
20623;SDS011;10471;42.736;23.346;2023-09-19T11:46:31;7.57;;;5.50;;
20623;SDS011;10471;42.736;23.346;2023-09-19T11:49:05;7.73;;;5.77;;
20623;SDS011;10471;42.736;23.346;2023-09-19T11:51:42;6.00;;;5.40;;
20623;SDS011;10471;42.736;23.346;2023-09-19T11:54:12;8.47;;;5.60;;
20623;SDS011;10471;42.736;23.346;2023-09-19T11:56:44;7.40;;;5.40;;
20623;SDS011;10471;42.736;23.346;2023-09-19T11:59:10;11.10;;;5.77;;
20623;SDS011;10471;42.736;23.346;2023-09-19T12:01:37;7.13;;;5.30;;
20623;SDS011;10471;42.736;23.346;2023-09-19T12:04:08;10.53;;;6.20;;
20623;SDS011;10471;42.736;23.346;2023-09-19T12:06:36;8.70;;;6.00;;
20623;SDS011;10471;42.736;23.346;2023-09-19T12:09:03;8.30;;;5.53;;
20623;SDS011;10471;42.736;23.346;2023-09-19T12:11:40;7.43;;;5.40;;
20623;SDS011;10471;42.736;23.346;2023-09-19T12:14:08;9.67;;;5.47;;
20623;SDS011;10471;42.736;23.346;2023-09-19T12:16:34;9.40;;;6.03;;
20623;SDS011;10471;42.736;23.346;2023-09-19T12:19:22;8.37;;;5.77;;
20623;SDS011;10471;42.736;23.346;2023-09-19T12:21:54;11.23;;;5.30;;
20623;SDS011;10471;42.736;23.346;2023-09-19T12:24:34;13.20;;;5.97;;
20623;SDS011;10471;42.736;23.346;2023-09-19T12:27:06;6.67;;;5.60;;
20623;SDS011;10471;42.736;23.346;2023-09-19T12:29:41;8.20;;;5.50;;
20623;SDS011;10471;42.736;23.346;2023-09-19T12:32:12;8.37;;;5.57;;
20623;SDS011;10471;42.736;23.346;2023-09-19T12:34:38;9.80;;;5.60;;
20623;SDS011;10471;42.736;23.346;2023-09-19T12:37:10;8.40;;;5.77;;
20623;SDS011;10471;42.736;23.346;2023-09-19T12:39:43;9.00;;;5.53;;
20623;SDS011;10471;42.736;23.346;2023-09-19T12:42:13;9.30;;;6.00;;
20623;SDS011;10471;42.736;23.346;2023-09-19T12:44:44;10.30;;;6.20;;
20623;SDS011;10471;42.736;23.346;2023-09-19T12:47:12;8.77;;;5.60;;
20623;SDS011;10471;42.736;23.346;2023-09-19T12:52:51;8.10;;;5.50;;
20623;SDS011;10471;42.736;23.346;2023-09-19T12:57:56;9.97;;;6.20;;
20623;SDS011;10471;42.736;23.346;2023-09-19T13:00:21;9.67;;;6.10;;
20623;SDS011;10471;42.736;23.346;2023-09-19T13:06:08;9.00;;;6.10;;
20623;SDS011;10471;42.736;23.346;2023-09-19T13:08:35;8.13;;;5.63;;
20623;SDS011;10471;42.736;23.346;2023-09-19T13:13:34;8.33;;;6.77;;
20623;SDS011;10471;42.736;23.346;2023-09-19T13:16:03;8.90;;;6.03;;
20623;SDS011;10471;42.736;23.346;2023-09-19T13:18:46;9.23;;;6.30;;
20623;SDS011;10471;42.736;23.346;2023-09-19T13:21:12;8.20;;;6.53;;
20623;SDS011;10471;42.736;23.346;2023-09-19T13:23:55;8.87;;;6.33;;
20623;SDS011;10471;42.736;23.346;2023-09-19T13:26:27;9.20;;;6.53;;
20623;SDS011;10471;42.736;23.346;2023-09-19T13:28:53;8.07;;;6.13;;
20623;SDS011;10471;42.736;23.346;2023-09-19T13:31:21;9.00;;;6.10;;
20623;SDS011;10471;42.736;23.346;2023-09-19T13:33:48;9.70;;;6.50;;
20623;SDS011;10471;42.736;23.346;2023-09-19T13:36:13;9.77;;;6.40;;
20623;SDS011;10471;42.736;23.346;2023-09-19T13:38:42;12.60;;;6.07;;
20623;SDS011;10471;42.736;23.346;2023-09-19T13:41:09;10.77;;;6.00;;
20623;SDS011;10471;42.736;23.346;2023-09-19T13:43:35;8.40;;;6.20;;
20623;SDS011;10471;42.736;23.346;2023-09-19T13:46:01;8.27;;;6.00;;
20623;SDS011;10471;42.736;23.346;2023-09-19T13:48:27;9.43;;;6.45;;
20623;SDS011;10471;42.736;23.346;2023-09-19T13:50:55;7.13;;;6.37;;
20623;SDS011;10471;42.736;23.346;2023-09-19T13:53:21;8.25;;;6.28;;
20623;SDS011;10471;42.736;23.346;2023-09-19T13:55:46;9.00;;;6.03;;
20623;SDS011;10471;42.736;23.346;2023-09-19T13:58:13;8.90;;;6.03;;
20623;SDS011;10471;42.736;23.346;2023-09-19T14:00:39;7.90;;;6.15;;
20623;SDS011;10471;42.736;23.346;2023-09-19T14:03:04;11.23;;;6.15;;
20623;SDS011;10471;42.736;23.346;2023-09-19T14:05:30;8.45;;;6.30;;
20623;SDS011;10471;42.736;23.346;2023-09-19T14:07:56;9.95;;;6.68;;
20623;SDS011;10471;42.736;23.346;2023-09-19T14:10:22;11.68;;;7.05;;
20623;SDS011;10471;42.736;23.346;2023-09-19T14:12:48;11.48;;;6.40;;
20623;SDS011;10471;42.736;23.346;2023-09-19T14:15:13;8.05;;;6.05;;
20623;SDS011;10471;42.736;23.346;2023-09-19T14:17:39;11.10;;;6.65;;
20623;SDS011;10471;42.736;23.346;2023-09-19T14:20:07;11.20;;;6.70;;
20623;SDS011;10471;42.736;23.346;2023-09-19T14:22:35;8.32;;;6.55;;
20623;SDS011;10471;42.736;23.346;2023-09-19T14:25:01;7.20;;;6.50;;
20623;SDS011;10471;42.736;23.346;2023-09-19T14:27:28;9.03;;;6.40;;
20623;SDS011;10471;42.736;23.346;2023-09-19T14:29:53;10.17;;;6.37;;
20623;SDS011;10471;42.736;23.346;2023-09-19T14:32:18;8.57;;;6.47;;
20623;SDS011;10471;42.736;23.346;2023-09-19T14:34:44;8.23;;;6.07;;
20623;SDS011;10471;42.736;23.346;2023-09-19T14:37:10;9.67;;;6.60;;
20623;SDS011;10471;42.736;23.346;2023-09-19T14:39:39;8.90;;;6.20;;
20623;SDS011;10471;42.736;23.346;2023-09-19T14:42:05;9.70;;;6.40;;
20623;SDS011;10471;42.736;23.346;2023-09-19T14:44:31;8.33;;;6.50;;
20623;SDS011;10471;42.736;23.346;2023-09-19T14:46:56;8.40;;;6.07;;
20623;SDS011;10471;42.736;23.346;2023-09-19T14:49:21;8.47;;;6.73;;
20623;SDS011;10471;42.736;23.346;2023-09-19T14:51:47;10.70;;;6.10;;
20623;SDS011;10471;42.736;23.346;2023-09-19T14:54:13;8.17;;;6.30;;
20623;SDS011;10471;42.736;23.346;2023-09-19T14:56:41;8.83;;;5.90;;
20623;SDS011;10471;42.736;23.346;2023-09-19T14:59:07;13.20;;;6.50;;
20623;SDS011;10471;42.736;23.346;2023-09-19T15:01:33;12.03;;;6.20;;
20623;SDS011;10471;42.736;23.346;2023-09-19T15:03:58;8.20;;;6.57;;
20623;SDS011;10471;42.736;23.346;2023-09-19T15:06:25;11.00;;;6.03;;
20623;SDS011;10471;42.736;23.346;2023-09-19T15:08:51;10.37;;;6.60;;
20623;SDS011;10471;42.736;23.346;2023-09-19T15:11:17;8.43;;;6.37;;
20623;SDS011;10471;42.736;23.346;2023-09-19T15:13:43;8.43;;;6.77;;
20623;SDS011;10471;42.736;23.346;2023-09-19T15:16:10;9.00;;;6.07;;
20623;SDS011;10471;42.736;23.346;2023-09-19T15:18:36;8.27;;;6.30;;
20623;SDS011;10471;42.736;23.346;2023-09-19T15:21:03;10.40;;;6.50;;
20623;SDS011;10471;42.736;23.346;2023-09-19T15:23:30;9.07;;;6.30;;
20623;SDS011;10471;42.736;23.346;2023-09-19T15:25:57;8.70;;;6.73;;
20623;SDS011;10471;42.736;23.346;2023-09-19T15:28:23;9.20;;;6.80;;
20623;SDS011;10471;42.736;23.346;2023-09-19T15:30:49;11.50;;;6.80;;
20623;SDS011;10471;42.736;23.346;2023-09-19T15:33:15;8.63;;;6.67;;
20623;SDS011;10471;42.736;23.346;2023-09-19T15:35:40;8.63;;;6.60;;
20623;SDS011;10471;42.736;23.346;2023-09-19T15:38:06;8.80;;;6.80;;